createdAt,value
2023-01-28T00:02:21.031Z,3.10
2023-01-28T00:04:48.943Z,3.10
2023-01-28T00:07:17.174Z,3.10
2023-01-28T00:09:45.064Z,3.10
2023-01-28T00:12:14.383Z,3.10
2023-01-28T00:14:42.370Z,3.10
2023-01-28T00:17:10.366Z,3.10
2023-01-28T00:19:38.316Z,3.10
2023-01-28T00:22:06.295Z,3.10
2023-01-28T00:24:34.295Z,3.20
2023-01-28T00:27:02.251Z,3.20
2023-01-28T00:29:31.520Z,3.10
2023-01-28T00:31:59.512Z,3.10
2023-01-28T00:34:27.453Z,3.20
2023-01-28T00:36:58.339Z,3.20
2023-01-28T00:39:26.806Z,3.20
2023-01-28T00:41:55.041Z,3.20
2023-01-28T00:44:23.051Z,3.20
2023-01-28T00:46:52.574Z,3.20
2023-01-28T00:49:20.616Z,3.30
2023-01-28T00:51:49.221Z,3.30
2023-01-28T00:54:17.770Z,3.40
2023-01-28T00:56:45.733Z,3.30
2023-01-28T00:59:14.060Z,3.30
2023-01-28T01:01:42.027Z,3.30
2023-01-28T01:04:11.575Z,3.30
2023-01-28T01:06:41.639Z,3.30
2023-01-28T01:09:12.680Z,3.30
2023-01-28T01:11:40.597Z,3.30
2023-01-28T01:14:08.563Z,3.40
2023-01-28T01:16:36.579Z,3.30
2023-01-28T01:19:04.564Z,3.30
2023-01-28T01:21:33.835Z,3.30
2023-01-28T01:24:01.793Z,3.30
2023-01-28T01:26:30.029Z,3.30
2023-01-28T01:28:58.057Z,3.30
2023-01-28T01:31:26.102Z,3.20
2023-01-28T01:33:54.304Z,3.30
2023-01-28T01:36:23.644Z,3.30
2023-01-28T01:38:56.313Z,3.30
2023-01-28T01:41:27.729Z,3.40
2023-01-28T01:43:57.323Z,3.30
2023-01-28T01:46:31.174Z,3.30
2023-01-28T01:49:07.539Z,3.30
2023-01-28T01:51:37.478Z,3.30
2023-01-28T01:54:07.666Z,3.30
2023-01-28T01:56:40.427Z,3.30
2023-01-28T01:59:12.684Z,3.30
2023-01-28T02:01:41.589Z,3.30
2023-01-28T02:04:14.065Z,3.20
2023-01-28T02:06:42.903Z,3.20
2023-01-28T02:09:25.408Z,3.30
2023-01-28T02:11:56.518Z,3.20
2023-01-28T02:14:31.335Z,3.20
2023-01-28T02:17:01.715Z,3.30
2023-01-28T02:19:37.742Z,3.20
2023-01-28T02:22:22.032Z,3.30
2023-01-28T02:25:13.252Z,3.30
2023-01-28T02:28:02.572Z,3.30
2023-01-28T02:30:35.041Z,3.30
2023-01-28T02:33:07.959Z,3.30
2023-01-28T02:35:43.788Z,3.30
2023-01-28T02:38:17.433Z,3.20
2023-01-28T02:41:03.073Z,3.20
2023-01-28T02:43:34.752Z,3.20
2023-01-28T02:46:29.433Z,3.20
2023-01-28T02:48:57.638Z,3.20
2023-01-28T02:51:35.657Z,3.20
2023-01-28T02:54:11.412Z,3.20
2023-01-28T02:56:46.841Z,3.20
2023-01-28T02:59:32.307Z,3.20
2023-01-28T03:02:10.177Z,3.20
2023-01-28T03:04:42.520Z,3.20
2023-01-28T03:07:13.526Z,3.20
2023-01-28T03:09:42.131Z,3.20
2023-01-28T03:12:31.775Z,3.20
2023-01-28T03:15:21.854Z,3.20
2023-01-28T03:18:11.437Z,3.20
2023-01-28T03:21:01.747Z,3.30
2023-01-28T03:23:51.581Z,3.30
2023-01-28T03:26:41.993Z,3.30
2023-01-28T03:29:31.044Z,3.30
2023-01-28T03:32:18.932Z,3.30
2023-01-28T03:35:05.999Z,3.30
2023-01-28T03:37:35.107Z,3.30
2023-01-28T03:40:06.164Z,3.30
2023-01-28T03:42:34.539Z,3.30
2023-01-28T03:45:04.791Z,3.30
2023-01-28T03:47:35.176Z,3.30
2023-01-28T03:50:03.292Z,3.30
2023-01-28T03:52:33.816Z,3.30
2023-01-28T03:55:03.534Z,3.30
2023-01-28T03:57:32.415Z,3.30
2023-01-28T04:00:00.987Z,3.30
2023-01-28T04:02:29.000Z,3.30
2023-01-28T04:04:59.017Z,3.30
2023-01-28T04:07:27.046Z,3.40
2023-01-28T04:09:55.010Z,3.30
2023-01-28T04:12:23.727Z,3.30
2023-01-28T04:14:51.655Z,3.30
2023-01-28T04:17:19.622Z,3.30
2023-01-28T04:19:47.490Z,3.30
2023-01-28T04:22:16.851Z,3.30
2023-01-28T04:24:44.873Z,3.30
2023-01-28T04:27:12.879Z,3.30
2023-01-28T04:29:43.949Z,3.30
2023-01-28T04:32:11.940Z,3.30
2023-01-28T04:34:39.837Z,3.30
2023-01-28T04:37:07.768Z,3.30
2023-01-28T04:39:37.072Z,3.20
2023-01-28T04:42:05.401Z,3.20
2023-01-28T04:44:33.378Z,3.20
2023-01-28T04:47:01.302Z,3.20
2023-01-28T04:49:29.211Z,3.20
2023-01-28T04:51:57.155Z,3.20
2023-01-28T04:54:25.170Z,3.20
2023-01-28T04:56:54.860Z,3.20
2023-01-28T04:59:23.822Z,3.20
2023-01-28T05:01:51.786Z,3.20
2023-01-28T05:04:19.841Z,3.20
2023-01-28T05:06:47.722Z,3.30
2023-01-28T05:09:15.635Z,3.20
2023-01-28T05:11:43.672Z,3.20
2023-01-28T05:14:13.309Z,3.20
2023-01-28T05:16:41.726Z,3.20
2023-01-28T05:19:09.756Z,3.20
2023-01-28T05:21:37.809Z,3.20
2023-01-28T05:24:06.656Z,3.20
2023-01-28T05:26:34.611Z,3.20
2023-01-28T05:29:02.596Z,3.20
2023-01-28T05:31:31.901Z,3.10
2023-01-28T05:33:59.850Z,3.10
2023-01-28T05:36:27.963Z,3.10
2023-01-28T05:38:55.872Z,3.10
2023-01-28T05:41:23.807Z,3.10
2023-01-28T05:43:51.807Z,3.00
2023-01-28T05:46:19.735Z,3.00
2023-01-28T05:48:50.967Z,3.00
2023-01-28T05:51:18.915Z,3.10
2023-01-28T05:53:46.859Z,3.10
2023-01-28T05:56:14.835Z,3.10
2023-01-28T05:58:42.759Z,3.10
2023-01-28T06:01:10.757Z,3.20
2023-01-28T06:03:38.646Z,3.10
2023-01-28T06:06:08.374Z,3.10
2023-01-28T06:08:37.267Z,3.20
2023-01-28T06:11:05.389Z,3.10
2023-01-28T06:13:33.359Z,3.10
2023-01-28T06:16:01.389Z,3.10
2023-01-28T06:18:29.283Z,3.20
2023-01-28T06:20:57.286Z,3.20
2023-01-28T06:23:26.648Z,3.20
2023-01-28T06:25:55.931Z,3.20
2023-01-28T06:28:24.359Z,3.20
2023-01-28T06:30:53.212Z,3.20
2023-01-28T06:33:22.236Z,3.20
2023-01-28T06:35:50.164Z,3.20
2023-01-28T06:38:18.195Z,3.20
2023-01-28T06:40:52.686Z,3.20
2023-01-28T06:43:20.596Z,3.20
2023-01-28T06:45:48.675Z,3.20
2023-01-28T06:48:16.691Z,3.20
2023-01-28T06:50:44.714Z,3.20
2023-01-28T06:53:12.686Z,3.20
2023-01-28T06:55:41.065Z,3.20
2023-01-28T06:58:10.844Z,3.20
2023-01-28T07:00:39.872Z,3.20
2023-01-28T07:03:07.930Z,3.10
2023-01-28T07:05:35.980Z,3.20
2023-01-28T07:08:06.110Z,3.20
2023-01-28T07:10:34.617Z,3.20
2023-01-28T07:13:03.487Z,3.30
2023-01-28T07:15:32.776Z,3.20
2023-01-28T07:18:01.259Z,3.20
2023-01-28T07:20:45.778Z,3.20
2023-01-28T07:23:14.857Z,3.30
2023-01-28T07:25:42.858Z,3.30
2023-01-28T07:28:11.961Z,3.20
2023-01-28T07:30:41.343Z,3.20
2023-01-28T07:33:09.291Z,3.30
2023-01-28T07:35:37.279Z,3.30
2023-01-28T07:38:05.194Z,3.30
2023-01-28T07:40:33.078Z,3.30
2023-01-28T07:43:01.096Z,3.40
2023-01-28T07:45:30.528Z,3.40
2023-01-28T07:48:01.584Z,3.40
2023-01-28T07:50:30.801Z,3.40
2023-01-28T07:52:59.143Z,3.50
2023-01-28T07:55:31.005Z,3.80
2023-01-28T07:58:00.935Z,3.60
2023-01-28T08:00:31.469Z,3.60
2023-01-28T08:03:02.394Z,3.50
2023-01-28T08:05:41.090Z,3.60
2023-01-28T08:08:09.667Z,3.60
2023-01-28T08:10:38.380Z,3.60
2023-01-28T08:13:07.076Z,3.60
2023-01-28T08:15:35.712Z,3.60
2023-01-28T08:18:06.505Z,3.60
2023-01-28T08:20:34.723Z,3.70
2023-01-28T08:23:07.590Z,3.60
2023-01-28T08:25:36.490Z,3.70
2023-01-28T08:28:05.760Z,3.70
2023-01-28T08:30:34.441Z,3.80
2023-01-28T08:33:03.740Z,3.80
2023-01-28T08:35:31.592Z,3.90
2023-01-28T08:38:01.411Z,4.00
2023-01-28T08:40:30.332Z,4.00
2023-01-28T08:42:58.658Z,4.10
2023-01-28T08:45:29.285Z,4.20
2023-01-28T08:47:59.041Z,4.10
2023-01-28T08:50:32.488Z,4.00
2023-01-28T08:53:02.006Z,4.10
2023-01-28T08:55:30.616Z,4.10
2023-01-28T08:57:58.823Z,4.10
2023-01-28T09:00:26.837Z,4.10
2023-01-28T09:02:55.019Z,4.20
2023-01-28T09:05:23.344Z,4.30
2023-01-28T09:07:52.617Z,4.30
2023-01-28T09:10:21.948Z,4.40
2023-01-28T09:12:50.214Z,4.30
2023-01-28T09:15:18.916Z,4.30
2023-01-28T09:17:46.814Z,4.50
2023-01-28T09:20:15.036Z,4.30
2023-01-28T09:22:43.304Z,4.30
2023-01-28T09:25:12.731Z,4.30
2023-01-28T09:27:40.645Z,4.30
2023-01-28T09:30:10.408Z,4.30
2023-01-28T09:32:38.559Z,4.30
2023-01-28T09:35:07.609Z,4.20
2023-01-28T09:37:35.620Z,4.10
2023-01-28T09:40:04.182Z,4.00
2023-01-28T09:42:58.420Z,3.90
2023-01-28T09:45:34.635Z,3.90
2023-01-28T09:48:06.394Z,4.00
2023-01-28T09:50:41.469Z,4.10
2023-01-28T09:53:14.428Z,4.00
2023-01-28T09:55:47.124Z,4.00
2023-01-28T09:58:18.535Z,4.00
2023-01-28T10:00:56.218Z,4.00
2023-01-28T10:03:41.506Z,4.10
2023-01-28T10:06:24.988Z,4.20
2023-01-28T10:09:23.880Z,4.40
2023-01-28T10:12:03.186Z,4.50
2023-01-28T10:14:43.210Z,4.50
2023-01-28T10:17:17.546Z,4.60
2023-01-28T10:19:51.547Z,4.70
2023-01-28T10:22:23.645Z,4.70
2023-01-28T10:24:57.590Z,4.80
2023-01-28T10:27:31.774Z,4.80
2023-01-28T10:30:16.870Z,4.60
2023-01-28T10:32:50.007Z,4.60
2023-01-28T10:35:18.265Z,4.70
2023-01-28T10:37:46.515Z,4.70
2023-01-28T10:40:17.474Z,4.60
2023-01-28T10:42:46.752Z,4.50
2023-01-28T10:45:22.782Z,4.60
2023-01-28T10:47:55.641Z,4.90
2023-01-28T10:50:26.317Z,5.20
2023-01-28T10:52:58.230Z,5.50
2023-01-28T10:55:30.681Z,5.80
2023-01-28T10:58:00.127Z,6.00
2023-01-28T11:00:32.902Z,6.10
2023-01-28T11:03:02.778Z,6.10
2023-01-28T11:05:34.357Z,6.00
2023-01-28T11:08:07.939Z,5.90
2023-01-28T11:10:38.757Z,5.70
2023-01-28T11:13:08.301Z,5.40
2023-01-28T11:15:47.638Z,6.40
2023-01-28T11:18:20.552Z,5.10
2023-01-28T11:20:56.848Z,5.10
2023-01-28T11:23:28.560Z,5.10
2023-01-28T11:26:08.751Z,5.00
2023-01-28T11:28:41.990Z,5.00
2023-01-28T11:31:14.218Z,5.10
2023-01-28T11:33:47.299Z,5.10
2023-01-28T11:36:17.135Z,5.10
2023-01-28T11:38:53.871Z,5.10
2023-01-28T11:41:28.777Z,5.10
2023-01-28T11:43:57.284Z,5.10
2023-01-28T11:46:53.500Z,5.10
2023-01-28T11:49:34.704Z,5.10
2023-01-28T11:52:11.111Z,5.10
2023-01-28T11:54:52.935Z,5.10
2023-01-28T11:57:25.495Z,5.10
2023-01-28T12:00:03.992Z,5.30
2023-01-28T12:02:55.231Z,5.20
2023-01-28T12:05:51.389Z,5.20
2023-01-28T12:08:28.155Z,5.10
2023-01-28T12:11:14.826Z,5.10
2023-01-28T12:14:01.918Z,5.20
2023-01-28T12:19:55.046Z,5.40
2023-01-28T12:22:51.638Z,5.50
2023-01-28T12:25:50.135Z,5.30
2023-01-28T12:28:37.532Z,5.30
2023-01-28T12:31:39.152Z,5.20
2023-01-28T12:34:38.567Z,5.10
2023-01-28T12:37:13.728Z,4.90
2023-01-28T12:39:55.118Z,4.80
2023-01-28T12:42:34.687Z,4.70
2023-01-28T12:45:23.464Z,4.70
2023-01-28T12:47:57.259Z,4.70
2023-01-28T12:50:29.911Z,4.70
2023-01-28T12:56:21.670Z,4.70
2023-01-28T12:58:56.267Z,4.70
2023-01-28T13:01:31.366Z,4.60
2023-01-28T13:04:06.672Z,4.60
2023-01-28T13:06:41.215Z,4.70
2023-01-28T13:09:21.203Z,4.70
2023-01-28T13:11:57.626Z,4.80
2023-01-28T13:14:33.320Z,4.80
2023-01-28T13:17:11.216Z,4.80
2023-01-28T13:19:41.783Z,4.90
2023-01-28T13:22:15.014Z,4.80
2023-01-28T13:24:44.498Z,4.70
2023-01-28T13:27:22.517Z,4.70
2023-01-28T13:30:01.325Z,4.90
2023-01-28T13:32:35.444Z,5.00
2023-01-28T13:35:07.083Z,5.20
2023-01-28T13:37:39.188Z,5.30
2023-01-28T13:40:29.037Z,5.40
2023-01-28T13:43:06.015Z,5.30
2023-01-28T13:45:35.023Z,5.30
2023-01-28T13:48:17.225Z,5.40
2023-01-28T13:50:46.629Z,5.40
2023-01-28T13:53:38.111Z,5.40
2023-01-28T13:56:16.440Z,5.30
2023-01-28T13:59:32.891Z,5.30
2023-01-28T14:02:33.349Z,5.20
2023-01-28T14:05:39.796Z,5.20
2023-01-28T14:08:39.499Z,5.20
2023-01-28T14:11:36.153Z,5.20
2023-01-28T14:14:33.680Z,5.10
2023-01-28T14:17:11.022Z,5.10
2023-01-28T14:19:39.839Z,5.00
2023-01-28T14:22:09.696Z,5.00
2023-01-28T14:24:39.375Z,4.90
2023-01-28T14:27:16.511Z,4.80
2023-01-28T14:29:56.042Z,4.70
2023-01-28T14:32:28.819Z,4.70
2023-01-28T14:35:00.394Z,4.60
2023-01-28T14:37:32.951Z,4.60
2023-01-28T14:40:02.651Z,4.50
2023-01-28T14:42:38.266Z,4.40
2023-01-28T14:45:20.332Z,4.30
2023-01-28T14:48:02.234Z,4.30
2023-01-28T14:50:59.462Z,4.30
2023-01-28T14:53:50.107Z,4.40
2023-01-28T14:56:26.950Z,4.40
2023-01-28T14:59:01.059Z,4.30
2023-01-28T15:01:30.918Z,4.30
2023-01-28T15:03:59.390Z,4.20
2023-01-28T15:06:32.263Z,4.20
2023-01-28T15:09:08.813Z,4.10
2023-01-28T15:11:39.926Z,4.10
2023-01-28T15:14:17.460Z,4.10
2023-01-28T15:16:50.062Z,4.00
2023-01-28T15:19:18.938Z,3.90
2023-01-28T15:21:47.346Z,3.90
2023-01-28T15:24:18.679Z,3.90
2023-01-28T15:26:49.447Z,3.80
2023-01-28T15:29:34.002Z,3.80
2023-01-28T15:32:02.109Z,3.80
2023-01-28T15:34:31.132Z,3.80
2023-01-28T15:37:00.167Z,3.80
2023-01-28T15:39:30.362Z,3.80
2023-01-28T15:42:01.120Z,3.70
2023-01-28T15:44:33.527Z,3.60
2023-01-28T15:47:03.394Z,3.60
2023-01-28T15:49:34.945Z,3.50
2023-01-28T15:52:03.618Z,3.50
2023-01-28T15:54:32.491Z,3.50
2023-01-28T15:57:10.927Z,3.50
2023-01-28T15:59:40.657Z,3.40
2023-01-28T16:02:18.923Z,3.50
2023-01-28T16:04:58.437Z,3.40
2023-01-28T16:07:27.791Z,3.40
2023-01-28T16:09:58.235Z,3.30
2023-01-28T16:12:27.925Z,3.30
2023-01-28T16:14:59.929Z,3.30
2023-01-28T16:17:31.562Z,3.30
2023-01-28T16:20:03.357Z,3.30
2023-01-28T16:22:35.787Z,3.30
2023-01-28T16:25:05.180Z,3.30
2023-01-28T16:27:33.236Z,3.20
2023-01-28T16:30:02.639Z,3.20
2023-01-28T16:32:35.452Z,3.20
2023-01-28T16:35:04.633Z,3.20
2023-01-28T16:37:32.738Z,3.20
2023-01-28T16:43:48.175Z,3.20
2023-01-28T16:46:17.537Z,3.10
2023-01-28T16:48:45.612Z,3.10
2023-01-28T16:51:18.220Z,3.10
2023-01-28T16:53:48.082Z,3.10
2023-01-28T16:56:35.803Z,3.10
2023-01-28T16:59:06.297Z,3.00
2023-01-28T17:01:36.112Z,3.10
2023-01-28T17:04:11.906Z,3.10
2023-01-28T17:06:43.516Z,3.10
2023-01-28T17:09:12.199Z,3.10
2023-01-28T17:11:40.897Z,3.10
2023-01-28T17:14:09.047Z,3.00
2023-01-28T17:16:38.759Z,3.00
2023-01-28T17:19:07.305Z,3.00
2023-01-28T17:21:35.331Z,3.10
2023-01-28T17:24:03.572Z,3.00
2023-01-28T17:26:31.675Z,3.00
2023-01-28T17:28:59.902Z,3.00
2023-01-28T17:31:28.815Z,3.00
2023-01-28T17:37:49.678Z,3.00
2023-01-28T17:40:17.625Z,3.00
2023-01-28T17:42:45.694Z,3.00
2023-01-28T17:45:14.113Z,3.00
2023-01-28T17:47:42.307Z,3.00
2023-01-28T17:50:12.035Z,3.10
2023-01-28T17:52:41.034Z,3.00
2023-01-28T17:55:12.124Z,3.10
2023-01-28T17:57:40.157Z,3.10
2023-01-28T18:00:10.924Z,3.00
2023-01-28T18:02:39.332Z,3.00
2023-01-28T18:05:08.811Z,3.00
2023-01-28T18:07:37.481Z,3.00
2023-01-28T18:10:06.636Z,3.00
2023-01-28T18:12:36.476Z,3.00
2023-01-28T18:15:04.573Z,3.00
2023-01-28T18:17:32.620Z,3.00
2023-01-28T18:20:00.805Z,3.00
2023-01-28T18:22:29.052Z,3.00
2023-01-28T18:25:21.620Z,3.00
2023-01-28T18:27:52.429Z,3.00
2023-01-28T18:30:21.218Z,2.90
2023-01-28T18:33:08.567Z,2.90
2023-01-28T18:35:42.834Z,2.90
2023-01-28T18:38:11.611Z,2.80
2023-01-28T18:40:44.060Z,2.80
2023-01-28T18:43:14.674Z,2.80
2023-01-28T18:45:45.715Z,2.90
2023-01-28T18:48:13.993Z,2.80
2023-01-28T18:50:42.262Z,2.80
2023-01-28T18:53:19.322Z,2.60
2023-01-28T18:55:48.097Z,2.60
2023-01-28T18:58:17.969Z,2.60
2023-01-28T19:00:46.151Z,2.50
2023-01-28T19:03:14.212Z,2.50
2023-01-28T19:05:42.185Z,2.40
2023-01-28T19:08:29.009Z,2.50
2023-01-28T19:10:57.187Z,2.50
2023-01-28T19:13:26.587Z,2.40
2023-01-28T19:15:54.573Z,2.40
2023-01-28T19:18:25.337Z,2.40
2023-01-28T19:20:53.330Z,2.40
2023-01-28T19:23:21.452Z,2.40
2023-01-28T19:25:49.413Z,2.40
2023-01-28T19:28:17.383Z,2.40
2023-01-28T19:30:46.791Z,2.40
2023-01-28T19:33:15.232Z,2.40
2023-01-28T19:35:44.168Z,2.40
2023-01-28T19:38:12.184Z,2.40
2023-01-28T19:40:42.526Z,2.30
2023-01-28T19:43:10.499Z,2.30
2023-01-28T19:45:38.567Z,2.20
2023-01-28T19:48:08.028Z,2.20
2023-01-28T19:50:38.381Z,2.20
2023-01-28T19:53:06.655Z,2.10
2023-01-28T19:55:34.735Z,2.10
2023-01-28T19:58:03.418Z,2.10
2023-01-28T20:00:31.834Z,2.10
2023-01-28T20:03:00.503Z,2.10
2023-01-28T20:05:30.121Z,2.10
2023-01-28T20:07:58.469Z,2.10
2023-01-28T20:10:26.766Z,2.10
2023-01-28T20:13:03.986Z,2.10
2023-01-28T20:15:39.793Z,2.10
2023-01-28T20:18:17.841Z,2.10
2023-01-28T20:20:54.824Z,2.10
2023-01-28T20:23:24.511Z,2.10
2023-01-28T20:26:34.808Z,2.10
2023-01-28T20:29:08.199Z,2.10
2023-01-28T20:31:43.361Z,2.10
2023-01-28T20:34:29.835Z,2.00
2023-01-28T20:37:02.459Z,1.90
2023-01-28T20:39:32.646Z,1.80
2023-01-28T20:42:03.632Z,1.80
2023-01-28T20:44:32.566Z,1.60
2023-01-28T20:47:06.599Z,1.80
2023-01-28T20:49:34.696Z,1.70
2023-01-28T20:52:13.079Z,1.70
2023-01-28T20:54:41.231Z,1.70
2023-01-28T20:57:09.265Z,1.70
2023-01-28T20:59:39.340Z,1.70
2023-01-28T21:02:07.842Z,1.70
2023-01-28T21:04:38.007Z,1.70
2023-01-28T21:07:11.335Z,1.80
2023-01-28T21:09:39.532Z,1.70
2023-01-28T21:12:08.652Z,1.80
2023-01-28T21:14:36.617Z,1.80
2023-01-28T21:17:04.786Z,1.80
2023-01-28T21:19:32.979Z,1.80
2023-01-28T21:22:02.747Z,1.80
2023-01-28T21:24:35.568Z,1.90
2023-01-28T21:27:03.535Z,1.80
2023-01-28T21:29:31.774Z,1.80
2023-01-28T21:31:59.920Z,1.90
2023-01-28T21:34:27.917Z,1.90
2023-01-28T21:36:56.129Z,1.90
2023-01-28T21:39:26.202Z,1.90
2023-01-28T21:41:55.774Z,1.80
2023-01-28T21:44:32.789Z,1.80
2023-01-28T21:47:29.382Z,1.80
2023-01-28T21:49:57.917Z,1.70
2023-01-28T21:52:44.445Z,1.80
2023-01-28T21:55:14.153Z,1.80
2023-01-28T21:57:43.936Z,1.80
2023-01-28T22:00:13.091Z,1.90
2023-01-28T22:02:41.642Z,1.70
2023-01-28T22:05:12.054Z,1.80
2023-01-28T22:07:49.205Z,1.80
2023-01-28T22:10:34.863Z,1.80
2023-01-28T22:13:10.128Z,1.80
2023-01-28T22:15:38.286Z,1.70
2023-01-28T22:18:06.521Z,1.70
2023-01-28T22:20:41.892Z,1.70
2023-01-28T22:23:09.857Z,1.70
2023-01-28T22:25:38.040Z,1.60
2023-01-28T22:28:07.636Z,1.60
2023-01-28T22:30:38.193Z,1.60
2023-01-28T22:33:09.400Z,1.60
2023-01-28T22:35:39.670Z,1.60
2023-01-28T22:38:19.789Z,1.60
2023-01-28T22:40:49.829Z,1.60
2023-01-28T22:43:19.403Z,1.60
2023-01-28T22:45:47.763Z,1.50
2023-01-28T22:48:21.317Z,1.50
2023-01-28T22:50:51.261Z,1.50
2023-01-28T22:53:27.086Z,1.50
2023-01-28T22:56:10.542Z,1.50
2023-01-28T22:58:44.044Z,1.50
2023-01-28T23:01:27.354Z,1.50
2023-01-28T23:03:59.239Z,1.50
2023-01-28T23:06:40.737Z,1.50
2023-01-28T23:09:08.797Z,1.50
2023-01-28T23:11:36.881Z,1.50
2023-01-28T23:14:23.697Z,1.40
2023-01-28T23:17:09.738Z,1.50
2023-01-28T23:19:59.919Z,1.50
2023-01-28T23:23:00.596Z,1.40
2023-01-28T23:25:29.023Z,1.50
2023-01-28T23:28:02.113Z,1.40
2023-01-28T23:30:31.833Z,1.40
2023-01-28T23:33:01.466Z,1.40
2023-01-28T23:35:32.490Z,1.30
2023-01-28T23:38:00.683Z,1.40
2023-01-28T23:40:28.977Z,1.30
2023-01-28T23:42:58.321Z,1.30
2023-01-28T23:45:29.367Z,1.30
2023-01-28T23:48:05.422Z,1.20
2023-01-28T23:50:33.629Z,1.30
2023-01-28T23:53:13.204Z,1.30
2023-01-28T23:55:41.689Z,1.30
2023-01-28T23:58:09.740Z,1.30
